createdAt,value
2022-08-05T03:49:56.206Z,22.38
2022-08-05T03:50:42.230Z,22.41
2022-08-05T03:56:05.045Z,22.49
2022-08-05T03:56:43.689Z,22.55
2022-08-05T03:57:47.195Z,22.6
2022-08-05T03:58:35.283Z,22.63
2022-08-05T03:59:59.323Z,22.69
2022-08-05T04:00:35.455Z,22.76
2022-08-05T04:01:37.072Z,22.73
2022-08-05T04:02:58.232Z,22.81
2022-08-05T04:03:40.368Z,22.81
2022-08-05T04:04:35.272Z,22.88
2022-08-05T04:05:38.609Z,22.88
2022-08-05T04:06:35.274Z,22.85
2022-08-05T04:08:00.629Z,22.88
2022-08-05T04:08:41.636Z,22.91
2022-08-05T04:09:55.749Z,22.94
2022-08-05T04:10:43.055Z,22.88
2022-08-05T04:11:59.332Z,22.84
2022-08-05T04:13:56.072Z,22.99
2022-08-05T04:14:36.010Z,23.06
2022-08-05T04:15:39.012Z,23
2022-08-05T04:16:38.329Z,23.04
2022-08-05T04:18:02.474Z,23.1
2022-08-05T04:18:37.098Z,23.24
2022-08-05T04:19:36.570Z,23.24
2022-08-05T04:20:36.616Z,23.32
2022-08-05T04:22:22.803Z,23.29
2022-08-05T04:22:39.063Z,23.25
2022-08-05T04:24:18.962Z,23.29
2022-08-05T04:24:37.278Z,23.35
2022-08-05T04:26:06.784Z,23.45
2022-08-05T04:26:37.518Z,23.38
2022-08-05T04:28:05.552Z,23.44
2022-08-05T04:28:37.279Z,23.45
2022-08-05T04:29:39.405Z,23.5
2022-08-05T04:30:38.455Z,23.5
2022-08-05T04:31:43.275Z,23.48
2022-08-05T04:32:39.049Z,23.52
2022-08-05T04:34:36.687Z,23.42
2022-08-05T04:35:02.026Z,23.48
2022-08-05T04:36:51.493Z,23.47
2022-08-05T04:37:03.413Z,23.52
2022-08-05T04:38:09.101Z,23.52
2022-08-05T04:39:01.999Z,23.44
2022-08-05T04:40:01.562Z,23.53
2022-08-05T04:41:05.679Z,23.52
2022-08-05T04:42:01.689Z,23.55
2022-08-05T04:43:02.607Z,23.53
2022-08-05T04:44:02.150Z,23.59
2022-08-05T04:45:05.260Z,23.66
2022-08-05T04:46:03.202Z,23.67
2022-08-05T04:47:14.629Z,23.75
2022-08-05T04:48:02.457Z,23.71
2022-08-05T04:49:03.713Z,23.74
2022-08-05T04:50:14.009Z,23.75
2022-08-05T04:51:18.129Z,23.75
2022-08-05T04:52:17.633Z,23.82
2022-08-05T04:53:18.597Z,23.92
2022-08-05T04:54:18.320Z,23.87
2022-08-05T04:56:32.713Z,23.9
2022-08-05T04:56:45.916Z,23.87
2022-08-05T04:57:56.144Z,23.96
2022-08-05T04:58:45.449Z,23.99
2022-08-05T04:59:50.343Z,24.04
2022-08-05T05:00:45.660Z,24.02
2022-08-05T05:02:45.308Z,24.19
2022-08-05T05:03:03.180Z,24.21
2022-08-05T05:03:58.988Z,24.24
2022-08-05T05:05:29.421Z,24.24
2022-08-05T05:06:59.788Z,24.19
2022-08-05T05:08:03.073Z,24.14
2022-08-05T05:08:52.503Z,23.99
2022-08-05T05:09:46.821Z,23.92
2022-08-05T05:10:58.495Z,23.93
2022-08-05T05:12:03.002Z,23.9
2022-08-05T05:12:44.699Z,23.97
2022-08-05T05:13:48.187Z,24.07
2022-08-05T05:14:55.059Z,24.17
2022-08-05T05:16:09.465Z,24.12
2022-08-05T05:16:46.712Z,24.22
2022-08-05T05:18:01.119Z,24.18
2022-08-05T05:19:23.738Z,24.26
2022-08-05T05:19:52.589Z,24.29
2022-08-05T05:20:55.718Z,24.29
2022-08-05T05:21:57.907Z,24.39
2022-08-05T05:22:52.894Z,24.49
2022-08-05T05:24:13.555Z,24.56
2022-08-05T05:25:19.010Z,24.64
2022-08-05T05:25:54.202Z,24.77
2022-08-05T05:26:59.029Z,24.83
2022-08-05T05:27:58.707Z,24.82
2022-08-05T05:28:52.418Z,24.92
2022-08-05T05:30:29.897Z,24.83
2022-08-05T05:30:54.225Z,24.92
2022-08-05T05:31:53.216Z,24.87
2022-08-05T05:32:53.253Z,24.75
2022-08-05T05:34:06.293Z,24.66
2022-08-05T05:34:54.896Z,24.63
2022-08-05T05:35:53.948Z,24.54
2022-08-05T05:36:55.957Z,24.42
2022-08-05T05:38:05.570Z,24.39
2022-08-05T05:38:52.017Z,24.36
2022-08-05T05:39:52.650Z,24.24
2022-08-05T05:40:57.390Z,24.18
2022-08-05T05:41:58.943Z,24.18
2022-08-05T05:42:54.142Z,24.17
2022-08-05T05:44:37.093Z,23.97
2022-08-05T05:44:53.478Z,23.92
2022-08-05T05:45:53.122Z,23.85
2022-08-05T05:46:56.147Z,23.74
2022-08-05T05:48:12.251Z,23.57
2022-08-05T05:48:55.086Z,23.5
2022-08-05T05:50:04.303Z,23.48
2022-08-05T05:50:53.136Z,23.38
2022-08-05T05:51:55.942Z,23.22
2022-08-05T05:52:55.076Z,23.24
2022-08-05T05:54:03.075Z,23.12
2022-08-05T05:54:55.042Z,23.15
2022-08-05T05:56:05.740Z,23.14
2022-08-05T05:56:55.338Z,23.01
2022-08-05T05:58:04.438Z,22.88
2022-08-05T05:58:55.060Z,22.92
2022-08-05T05:59:55.245Z,22.73
2022-08-05T06:00:54.177Z,22.71
2022-08-05T06:02:02.127Z,22.55
2022-08-05T06:02:52.868Z,22.49
2022-08-05T06:04:06.727Z,22.45
2022-08-05T06:04:54.014Z,22.39
2022-08-05T06:06:00.138Z,22.41
2022-08-05T06:06:54.325Z,22.44
2022-08-05T06:08:06.671Z,22.38
2022-08-05T06:08:55.692Z,22.45
2022-08-05T06:10:12.390Z,22.36
2022-08-05T06:10:57.597Z,22.31
2022-08-05T06:12:06.486Z,22.38
2022-08-05T06:12:53.173Z,22.33
2022-08-05T06:13:58.147Z,22.34
2022-08-05T06:14:56.401Z,22.31
2022-08-05T06:16:39.835Z,22.22
2022-08-05T06:16:53.098Z,22.29
2022-08-05T06:17:58.133Z,22.18
2022-08-05T06:19:02.264Z,22.29
2022-08-05T06:20:03.810Z,22.22
2022-08-05T06:20:58.436Z,22.18
2022-08-05T06:21:56.776Z,22.24
2022-08-05T06:22:52.838Z,22.26
2022-08-05T06:23:54.440Z,22.27
2022-08-05T06:24:53.432Z,22.2
2022-08-05T06:26:27.439Z,22.24
2022-08-05T06:26:57.964Z,22.24
2022-08-05T06:28:30.844Z,22.24
2022-08-05T06:28:53.080Z,22.31
2022-08-05T06:30:21.967Z,22.31
2022-08-05T06:30:54.358Z,22.29
2022-08-05T06:31:55.145Z,22.42
2022-08-05T06:32:54.843Z,22.41
2022-08-05T06:34:12.991Z,22.42
2022-08-05T06:34:59.250Z,22.46
2022-08-05T06:36:12.754Z,22.48
2022-08-05T06:37:03.473Z,22.52
2022-08-05T06:38:12.383Z,22.54
2022-08-05T06:39:00.822Z,22.6
2022-08-05T06:39:59.822Z,22.6
2022-08-05T06:41:02.089Z,22.73
2022-08-05T06:42:01.546Z,22.91
2022-08-05T06:43:00.144Z,23.07
2022-08-05T06:44:04.959Z,23.35
2022-08-05T06:45:05.372Z,23.44
2022-08-05T06:46:11.742Z,23.89
2022-08-05T06:48:53.337Z,24.22
2022-08-05T06:49:16.569Z,24.3
2022-08-05T06:50:21.726Z,24.32
2022-08-05T06:51:31.813Z,24.29
2022-08-05T06:52:42.920Z,24.21
2022-08-05T06:53:41.423Z,24.17
2022-08-05T06:54:34.398Z,24.14
2022-08-05T06:55:44.472Z,24.02
2022-08-05T06:56:36.682Z,23.99
2022-08-05T06:58:35.180Z,24.09
2022-08-05T06:58:51.925Z,24.12
2022-08-05T07:00:00.795Z,24.22
2022-08-05T07:00:52.472Z,24.36
2022-08-05T07:01:57.583Z,24.58
2022-08-05T07:02:58.054Z,24.7
2022-08-05T07:03:52.477Z,24.85
2022-08-05T07:04:52.823Z,25
2022-08-05T07:05:51.890Z,25.17
2022-08-05T07:06:55.015Z,25.33
2022-08-05T07:07:52.149Z,25.51
2022-08-05T07:08:59.004Z,25.79
2022-08-05T07:10:03.513Z,25.91
2022-08-05T07:10:57.293Z,26.01
2022-08-05T07:11:56.595Z,26.23
2022-08-05T07:12:53.794Z,26.19
2022-08-05T07:14:04.337Z,26.24
2022-08-05T07:14:56.324Z,26.3
2022-08-05T07:16:39.482Z,26.45
2022-08-05T07:18:35.538Z,26.68
2022-08-05T07:20:37.244Z,26.49
2022-08-05T07:20:52.208Z,26.44
2022-08-05T07:22:07.317Z,26.26
2022-08-05T07:22:53.370Z,26.03
2022-08-05T07:23:56.980Z,25.71
2022-08-05T07:24:58.544Z,25.38
2022-08-05T07:26:02.012Z,25.2
2022-08-05T07:27:02.839Z,24.96
2022-08-05T07:28:17.307Z,24.7
2022-08-05T07:29:04.268Z,24.69
2022-08-05T07:30:38.615Z,24.67
2022-08-05T07:31:01.902Z,24.64
2022-08-05T07:32:06.259Z,24.67
2022-08-05T07:33:01.823Z,24.69
2022-08-05T07:34:04.865Z,24.8
2022-08-05T07:36:19.980Z,25.15
2022-08-05T07:36:32.124Z,25.15
2022-08-05T07:37:41.980Z,25.22
2022-08-05T07:38:46.558Z,25.24
2022-08-05T07:40:34.500Z,25.37
2022-08-05T07:42:16.281Z,25.82
2022-08-05T07:42:46.078Z,26.04
2022-08-05T07:43:45.224Z,26.89
2022-08-05T07:44:43.083Z,27.62
2022-08-05T07:46:03.736Z,28.55
2022-08-05T07:46:42.093Z,28.91
2022-08-05T07:47:48.046Z,29.57
2022-08-05T07:49:10.346Z,30.18
2022-08-05T07:50:01.280Z,30.39
2022-08-05T07:50:44.479Z,30.64
2022-08-05T07:51:56.615Z,30.47
2022-08-05T07:52:42.733Z,30.47
2022-08-05T07:53:56.482Z,30.03
2022-08-05T07:54:51.531Z,29.82
2022-08-05T07:57:15.207Z,29.65
2022-08-05T07:58:57.614Z,29.85
2022-08-05T07:59:16.668Z,30.07
2022-08-05T08:00:16.960Z,30.37
2022-08-05T08:01:17.804Z,30.57
2022-08-05T08:02:21.607Z,30.54
2022-08-05T08:03:23.768Z,30.21
2022-08-05T08:04:39.853Z,29.72
2022-08-05T08:05:21.818Z,29.57
2022-08-05T08:06:20.690Z,29.48
2022-08-05T08:07:28.280Z,29.35
2022-08-05T08:08:24.669Z,29.2
2022-08-05T08:09:24.601Z,29.05
2022-08-05T08:10:28.534Z,28.9
2022-08-05T08:11:47.726Z,28.7
2022-08-05T08:12:52.039Z,28.51
2022-08-05T08:13:31.706Z,28.45
2022-08-05T08:14:23.679Z,28.35
2022-08-05T08:16:49.967Z,27.87
2022-08-05T08:17:03.539Z,27.81
2022-08-05T08:18:16.155Z,27.64
2022-08-05T08:19:04.556Z,27.46
2022-08-05T08:21:18.101Z,27.3
2022-08-05T08:21:52.817Z,27.31
2022-08-05T08:22:50.932Z,27.27
2022-08-05T08:24:14.354Z,27.13
2022-08-05T08:25:15.975Z,27.09
2022-08-05T08:26:10.267Z,27.08
2022-08-05T08:27:11.460Z,26.96
2022-08-05T08:28:06.035Z,26.89
2022-08-05T08:30:18.922Z,26.78
2022-08-05T08:30:54.857Z,26.76
2022-08-05T08:31:54.565Z,26.89
2022-08-05T08:32:55.659Z,26.89
2022-08-05T08:33:56.340Z,26.76
2022-08-05T08:34:54.328Z,26.75
2022-08-05T08:36:49.194Z,26.69
2022-08-05T08:37:21.205Z,26.69
2022-08-05T08:38:16.346Z,26.61
2022-08-05T08:39:21.887Z,26.57
2022-08-05T08:40:12.286Z,26.6
2022-08-05T08:41:13.944Z,26.57
2022-08-05T08:42:55.121Z,26.6
2022-08-05T08:45:35.145Z,26.82
2022-08-05T08:46:35.958Z,26.79
2022-08-05T08:49:05.135Z,26.93
2022-08-05T08:52:15.579Z,26.93
2022-08-05T08:52:29.376Z,26.97
2022-08-05T08:53:26.851Z,27
2022-08-05T08:54:32.264Z,26.93
2022-08-05T08:56:07.637Z,26.9
2022-08-05T08:56:29.651Z,26.9
2022-08-05T08:57:48.573Z,26.99
2022-08-05T08:58:50.533Z,26.93
2022-08-05T08:59:33.458Z,26.94
2022-08-05T09:00:28.694Z,27.08
2022-08-05T09:01:27.289Z,27.18
2022-08-05T09:02:31.248Z,27.15
2022-08-05T09:03:27.204Z,27.08
2022-08-05T09:04:34.989Z,27.11
2022-08-05T09:06:21.182Z,27.21
2022-08-05T09:07:56.684Z,27.3
2022-08-05T09:08:14.419Z,27.24
2022-08-05T09:09:15.707Z,27.33
2022-08-05T09:10:13.649Z,27.36
2022-08-05T09:11:18.299Z,27.43
2022-08-05T09:12:31.941Z,27.41
2022-08-05T09:13:15.469Z,27.41
2022-08-05T09:15:08.640Z,27.68
2022-08-05T09:15:22.708Z,27.62
2022-08-05T09:16:21.777Z,27.75
2022-08-05T09:17:52.878Z,27.84
2022-08-05T09:18:21.754Z,27.87
2022-08-05T09:19:36.255Z,27.86
2022-08-05T09:20:41.733Z,27.81
2022-08-05T09:22:35.904Z,27.79
2022-08-05T09:23:22.062Z,27.72
2022-08-05T09:24:12.511Z,27.81
2022-08-05T09:26:06.392Z,27.72
2022-08-05T09:26:32.563Z,27.81
2022-08-05T09:28:09.918Z,27.86
2022-08-05T09:28:35.275Z,27.83
2022-08-05T09:29:49.898Z,28.03
2022-08-05T09:30:28.717Z,27.99
2022-08-05T09:32:49.073Z,27.99
2022-08-05T09:33:04.954Z,28.01
2022-08-05T09:34:04.273Z,28.01
2022-08-05T09:35:04.993Z,27.99
2022-08-05T09:36:16.576Z,27.96
2022-08-05T09:37:04.091Z,27.94
2022-08-05T09:38:34.201Z,27.98
2022-08-05T09:39:52.135Z,28.2
2022-08-05T09:40:27.741Z,28.27
2022-08-05T09:41:24.459Z,28.36
2022-08-05T09:42:34.339Z,28.35
2022-08-05T09:43:24.927Z,28.33
2022-08-05T09:44:28.801Z,28.33
2022-08-05T09:46:15.556Z,28.21
2022-08-05T09:46:37.501Z,28.2
2022-08-05T09:47:58.820Z,28.27
2022-08-05T09:48:35.955Z,28.3
2022-08-05T09:50:04.568Z,28.51
2022-08-05T09:50:47.562Z,28.58
2022-08-05T09:51:42.909Z,28.72
2022-08-05T09:52:36.295Z,28.9
2022-08-05T09:54:01.548Z,29.26
2022-08-05T09:54:36.111Z,29.33
2022-08-05T09:56:12.759Z,29.54
2022-08-05T09:56:35.869Z,29.58
2022-08-05T09:57:43.115Z,29.66
2022-08-05T09:58:36.087Z,29.65
2022-08-05T09:59:41.462Z,29.57
2022-08-05T10:00:36.567Z,29.54
2022-08-05T10:01:39.580Z,29.54
2022-08-05T10:02:36.558Z,29.63
2022-08-05T10:04:03.743Z,29.82
2022-08-05T10:04:40.672Z,29.76
2022-08-05T10:05:38.686Z,29.77
2022-08-05T10:06:36.757Z,29.89
2022-08-05T10:08:50.479Z,30.04
2022-08-05T10:09:10.524Z,30.03
2022-08-05T10:10:34.774Z,30.07
2022-08-05T10:11:20.474Z,30.04
2022-08-05T10:12:36.795Z,30.09
2022-08-05T10:13:20.787Z,29.98
2022-08-05T10:14:20.891Z,30.06
2022-08-05T10:15:22.772Z,29.95
2022-08-05T10:16:21.757Z,29.88
2022-08-05T10:17:54.559Z,29.66
2022-08-05T10:18:22.430Z,29.55
2022-08-05T10:19:32.064Z,29.39
2022-08-05T10:20:25.048Z,29.26
2022-08-05T10:21:27.538Z,29.1
2022-08-05T10:22:48.836Z,29.03
2022-08-05T10:24:06.294Z,28.97
2022-08-05T10:24:31.020Z,29.03
2022-08-05T10:25:24.273Z,28.95
2022-08-05T10:26:36.118Z,29.03
2022-08-05T10:28:29.540Z,29.01
2022-08-05T10:28:47.535Z,28.95
2022-08-05T10:33:00.658Z,29.61
2022-08-05T10:33:21.138Z,29.7
2022-08-05T10:34:30.010Z,29.95
2022-08-05T10:35:21.445Z,30.04
2022-08-05T10:36:28.734Z,30.24
2022-08-05T10:37:23.105Z,30.07
2022-08-05T10:38:28.316Z,29.92
2022-08-05T10:40:17.754Z,29.81
2022-08-05T10:40:38.928Z,29.75
2022-08-05T10:41:51.443Z,29.61
2022-08-05T10:42:43.735Z,29.4
2022-08-05T10:43:41.110Z,29.36
2022-08-05T10:44:37.246Z,29.29
2022-08-05T10:45:49.175Z,29.21
2022-08-05T10:46:36.937Z,29.32
2022-08-05T10:47:36.449Z,29.43
2022-08-05T10:49:02.816Z,29.77
2022-08-05T10:50:33.314Z,29.79
2022-08-05T10:50:55.643Z,29.92
2022-08-05T10:52:10.275Z,29.92
2022-08-05T10:53:00.616Z,29.88
2022-08-05T10:53:52.686Z,29.84
2022-08-05T10:55:02.272Z,29.94
2022-08-05T10:56:27.528Z,29.87
2022-08-05T10:56:57.792Z,29.94
2022-08-05T10:57:58.017Z,30.07
2022-08-05T10:58:55.115Z,30.07
2022-08-05T11:00:20.384Z,30.26
2022-08-05T11:01:05.424Z,30.37
2022-08-05T11:02:14.044Z,30.32
2022-08-05T11:02:56.186Z,30.28
2022-08-05T11:03:55.063Z,30.1
2022-08-05T11:04:57.947Z,29.98
2022-08-05T11:06:06.119Z,29.82
2022-08-05T11:06:56.152Z,29.77
2022-08-05T11:08:36.886Z,29.66
2022-08-05T11:08:55.986Z,29.63
2022-08-05T11:10:12.483Z,29.48
2022-08-05T11:11:16.659Z,29.45
2022-08-05T11:11:58.170Z,29.51
2022-08-05T11:13:01.091Z,29.48
2022-08-05T11:14:03.550Z,29.51
2022-08-05T11:15:22.680Z,29.69
2022-08-05T11:16:08.477Z,29.91
2022-08-05T11:18:09.847Z,30.47
2022-08-05T11:18:27.009Z,30.44
2022-08-05T11:20:24.515Z,30.6
2022-08-05T11:20:41.531Z,30.62
2022-08-05T11:21:59.973Z,30.57
2022-08-05T11:22:38.532Z,30.63
2022-08-05T11:24:33.006Z,30.84
2022-08-05T11:26:11.447Z,31.07
2022-08-05T11:26:40.395Z,31.16
2022-08-05T11:28:03.183Z,31.41
2022-08-05T11:28:40.567Z,31.52
2022-08-05T11:29:39.399Z,31.67
2022-08-05T11:30:38.405Z,31.75
2022-08-05T11:32:05.695Z,31.81
2022-08-05T11:32:40.333Z,31.87
2022-08-05T11:33:50.909Z,31.77
2022-08-05T11:34:38.110Z,31.68
2022-08-05T11:36:08.427Z,31.6
2022-08-05T11:36:45.358Z,31.71
2022-08-05T11:38:53.618Z,31.72
2022-08-05T11:39:06.862Z,31.78
2022-08-05T11:40:09.364Z,31.88
2022-08-05T11:42:04.824Z,32.06
2022-08-05T11:42:30.388Z,32.03
2022-08-05T11:44:10.936Z,32.17
2022-08-05T11:45:02.135Z,32.27
2022-08-05T11:46:58.822Z,32.37
2022-08-05T11:48:01.021Z,32.35
2022-08-05T11:48:55.837Z,32.32
2022-08-05T11:49:56.115Z,32.37
2022-08-05T11:50:54.535Z,32.61
2022-08-05T11:51:55.106Z,32.54
2022-08-05T11:53:00.791Z,32.64
2022-08-05T11:53:58.320Z,32.68
2022-08-05T11:54:59.457Z,32.71
2022-08-05T11:55:58.689Z,32.59
2022-08-05T11:56:55.211Z,32.46
2022-08-05T11:58:20.046Z,32.35
2022-08-05T11:58:58.075Z,32.24
2022-08-05T11:59:55.217Z,32.15
2022-08-05T12:01:00.027Z,32.1
2022-08-05T12:01:58.662Z,32.01
2022-08-05T12:02:58.795Z,31.97
2022-08-05T12:04:00.953Z,32
2022-08-05T12:05:18.207Z,31.93
2022-08-05T12:05:56.359Z,31.86
2022-08-05T12:06:56.522Z,31.68
2022-08-05T12:08:20.543Z,31.67
2022-08-05T12:08:55.831Z,31.55
2022-08-05T12:10:01.930Z,31.41
2022-08-05T12:10:57.564Z,31.3
2022-08-05T12:11:55.296Z,31.18
2022-08-05T12:13:15.732Z,31.15
2022-08-05T12:14:03.968Z,31.06
2022-08-05T12:15:00.986Z,31.07
2022-08-05T12:16:00.515Z,31.22
2022-08-05T12:16:57.102Z,31.28
2022-08-05T12:18:16.321Z,31.21
2022-08-05T12:19:10.374Z,31.19
2022-08-05T12:20:43.724Z,31.13
2022-08-05T12:21:44.000Z,31.19
2022-08-05T12:22:48.667Z,31.19
2022-08-05T12:23:51.680Z,31.22
2022-08-05T12:24:51.751Z,31.28
2022-08-05T12:25:42.932Z,31.26
2022-08-05T12:26:46.222Z,31.21
2022-08-05T12:27:58.260Z,31.19
2022-08-05T12:28:41.964Z,31.19
2022-08-05T12:29:43.528Z,31.28
2022-08-05T12:30:50.477Z,31.22
2022-08-05T12:31:56.417Z,31.28
2022-08-05T12:32:45.219Z,31.34
2022-08-05T12:33:45.606Z,31.41
2022-08-05T12:34:42.039Z,31.43
2022-08-05T12:35:50.435Z,31.56
2022-08-05T12:36:44.575Z,31.67
2022-08-05T12:37:42.564Z,31.68
2022-08-05T12:38:42.682Z,31.53
2022-08-05T12:39:43.607Z,31.52
2022-08-05T12:40:46.546Z,31.44
2022-08-05T12:41:48.858Z,31.45
2022-08-05T12:42:41.441Z,31.45
2022-08-05T12:43:47.571Z,31.55
2022-08-05T12:44:47.408Z,31.55
2022-08-05T12:45:54.685Z,31.44
2022-08-05T12:46:41.638Z,31.37
2022-08-05T12:48:27.921Z,31.34
2022-08-05T12:48:45.378Z,31.3
2022-08-05T12:50:12.923Z,31.21
2022-08-05T12:50:46.508Z,31.1
2022-08-05T12:52:32.509Z,30.97
2022-08-05T12:52:53.973Z,30.88
2022-08-05T12:54:01.453Z,30.85
2022-08-05T12:54:54.455Z,30.77
2022-08-05T12:55:54.466Z,30.64
2022-08-05T12:56:55.571Z,30.56
2022-08-05T12:59:08.036Z,30.4
2022-08-05T13:02:12.833Z,30.13
2022-08-05T13:03:05.145Z,30.18
2022-08-05T13:04:09.819Z,30.11
2022-08-05T13:05:03.671Z,30.18
2022-08-05T13:06:03.487Z,30.22
2022-08-05T13:07:15.869Z,30.4
2022-08-05T13:08:10.702Z,30.7
2022-08-05T13:09:04.870Z,30.89
2022-08-05T13:10:05.630Z,31.06
2022-08-05T13:11:06.578Z,31.16
2022-08-05T13:12:13.181Z,31.21
2022-08-05T13:13:10.965Z,31.15
2022-08-05T13:14:39.037Z,31.16
2022-08-05T13:15:42.294Z,31.21
2022-08-05T13:16:24.930Z,31.16
2022-08-05T13:17:41.658Z,31.07
2022-08-05T13:18:26.557Z,31.15
2022-08-05T13:19:23.055Z,31.01
2022-08-05T13:20:32.037Z,31.03
2022-08-05T13:21:22.655Z,31.01
2022-08-05T13:22:34.288Z,30.97
2022-08-05T13:23:25.378Z,31.03
2022-08-05T13:25:05.373Z,30.91
2022-08-05T13:26:06.004Z,30.97
2022-08-05T13:26:56.686Z,30.94
2022-08-05T13:27:56.270Z,30.86
2022-08-05T13:28:59.062Z,30.81
2022-08-05T13:30:41.368Z,30.7
2022-08-05T13:30:59.327Z,30.67
2022-08-05T13:32:09.783Z,30.71
2022-08-05T13:33:00.823Z,30.7
2022-08-05T13:34:28.747Z,30.85
2022-08-05T13:34:56.554Z,30.88
2022-08-05T13:36:05.084Z,30.89
2022-08-05T13:36:56.563Z,30.82
2022-08-05T13:38:07.105Z,30.99
2022-08-05T13:38:56.595Z,30.99
2022-08-05T13:40:52.483Z,31.01
2022-08-05T13:41:05.871Z,31.04
2022-08-05T13:42:05.056Z,31.04
2022-08-05T13:43:03.254Z,31.08
2022-08-05T13:44:04.347Z,30.99
2022-08-05T13:45:03.569Z,30.96
2022-08-05T13:46:03.470Z,30.96
2022-08-05T13:48:09.035Z,30.85
2022-08-05T13:49:14.963Z,30.71
2022-08-05T13:50:19.123Z,30.62
2022-08-05T13:51:12.001Z,30.44
2022-08-05T13:52:13.558Z,30.4
2022-08-05T13:53:21.184Z,30.44
2022-08-05T13:54:20.887Z,30.52
2022-08-05T13:55:48.620Z,30.67
2022-08-05T13:56:23.625Z,30.73
2022-08-05T13:57:24.320Z,30.86
2022-08-05T13:58:35.539Z,30.99
2022-08-05T13:59:27.649Z,31.08
2022-08-05T14:00:31.365Z,31.18
2022-08-05T14:01:36.339Z,31.18
2022-08-05T14:02:31.777Z,31.3
2022-08-05T14:03:23.298Z,31.21
2022-08-05T14:04:26.397Z,31.13
2022-08-05T14:06:24.798Z,30.91
2022-08-05T14:06:38.718Z,30.82
2022-08-05T14:08:27.560Z,30.84
2022-08-05T14:08:46.890Z,31.01
2022-08-05T14:09:50.838Z,31.01
2022-08-05T14:10:46.173Z,30.99
2022-08-05T14:12:35.297Z,31.21
2022-08-05T14:12:59.800Z,31.28
2022-08-05T14:14:01.504Z,31.34
2022-08-05T14:14:56.003Z,31.36
2022-08-05T14:16:19.437Z,31.43
2022-08-05T14:16:59.966Z,31.44
2022-08-05T14:18:01.869Z,31.44
2022-08-05T14:18:54.483Z,31.52
2022-08-05T14:20:07.519Z,31.65
2022-08-05T14:22:06.803Z,31.67
2022-08-05T14:22:21.620Z,31.75
2022-08-05T14:23:39.567Z,31.86
2022-08-05T14:24:24.422Z,31.86
2022-08-05T14:25:30.703Z,31.87
2022-08-05T14:27:17.368Z,31.91
2022-08-05T14:27:34.252Z,31.77
2022-08-05T14:28:35.036Z,31.78
2022-08-05T14:29:36.194Z,31.78
2022-08-05T14:30:36.032Z,31.65
2022-08-05T14:32:30.260Z,31.53
2022-08-05T14:32:45.225Z,31.53
2022-08-05T14:34:05.415Z,31.4
2022-08-05T14:34:44.908Z,31.52
2022-08-05T14:35:56.934Z,31.53
2022-08-05T14:36:51.003Z,31.5
2022-08-05T14:37:57.455Z,31.34
2022-08-05T14:38:46.723Z,31.33
2022-08-05T14:40:01.480Z,31.3
2022-08-05T14:40:50.139Z,31.23
2022-08-05T14:42:24.962Z,31.19
2022-08-05T14:42:44.867Z,31.19
2022-08-05T14:44:22.478Z,31.26
2022-08-05T14:44:46.357Z,31.25
2022-08-05T14:45:45.767Z,31.33
2022-08-05T14:46:46.532Z,31.3
2022-08-05T14:48:11.127Z,31.41
2022-08-05T14:48:52.130Z,31.34
2022-08-05T14:50:19.971Z,31.13
2022-08-05T14:50:47.441Z,31.08
2022-08-05T14:51:47.545Z,30.84
2022-08-05T14:53:01.521Z,30.79
2022-08-05T14:54:33.757Z,30.67
2022-08-05T14:55:03.305Z,30.67
2022-08-05T14:56:00.870Z,30.6
2022-08-05T14:57:00.876Z,30.6
2022-08-05T14:58:02.392Z,30.7
2022-08-05T14:59:00.875Z,30.63
2022-08-05T15:00:00.976Z,30.56
2022-08-05T15:01:03.884Z,30.42
2022-08-05T15:02:02.459Z,30.29
2022-08-05T15:03:01.534Z,30.25
2022-08-05T15:04:01.145Z,30.13
2022-08-05T15:05:02.596Z,30.19
2022-08-05T15:06:18.167Z,30.13
2022-08-05T15:07:01.172Z,30.21
2022-08-05T15:08:58.898Z,30.4
2022-08-05T15:09:19.456Z,30.39
2022-08-05T15:10:14.812Z,30.49
2022-08-05T15:11:14.706Z,30.49
2022-08-05T15:12:18.879Z,30.59
2022-08-05T15:13:15.219Z,30.59
2022-08-05T15:14:20.418Z,30.56
2022-08-05T15:15:56.550Z,30.42
2022-08-05T15:16:19.324Z,30.26
2022-08-05T15:17:55.614Z,30.16
2022-08-05T15:18:17.217Z,30.21
2022-08-05T15:19:28.602Z,30.09
2022-08-05T15:20:27.229Z,30.07
2022-08-05T15:21:13.904Z,30.07
2022-08-05T15:22:13.821Z,30.04
2022-08-05T15:23:14.527Z,30.02
2022-08-05T15:24:14.213Z,29.92
2022-08-05T15:25:40.807Z,29.77
2022-08-05T15:26:13.466Z,29.85
2022-08-05T15:27:16.578Z,29.76
2022-08-05T15:28:18.393Z,29.61
2022-08-05T15:29:13.542Z,29.58
2022-08-05T15:30:16.632Z,29.43
2022-08-05T15:31:13.534Z,29.4
2022-08-05T15:32:13.937Z,29.57
2022-08-05T15:33:21.961Z,29.65
2022-08-05T15:34:41.538Z,29.79
2022-08-05T15:35:52.048Z,29.81
2022-08-05T15:36:40.936Z,29.81
2022-08-05T15:38:44.793Z,30.06
2022-08-05T15:41:59.399Z,30.52
2022-08-05T15:43:25.491Z,30.67
2022-08-05T15:44:22.136Z,30.79
2022-08-05T15:45:37.141Z,30.89
2022-08-05T15:46:20.302Z,31.07
2022-08-05T15:47:26.302Z,31.08
2022-08-05T15:48:20.110Z,31.07
2022-08-05T15:49:59.410Z,31.25
2022-08-05T15:50:27.261Z,31.21
2022-08-05T15:52:04.539Z,31.36
2022-08-05T15:53:12.627Z,31.38
2022-08-05T15:54:17.623Z,31.44
2022-08-05T15:55:10.272Z,31.33
2022-08-05T15:56:16.728Z,31.31
2022-08-05T15:57:11.906Z,31.28
2022-08-05T15:58:09.530Z,31.25
2022-08-05T15:59:20.136Z,31.18
2022-08-05T16:00:08.530Z,31.08
2022-08-05T16:01:22.418Z,30.99
2022-08-05T16:02:25.337Z,30.88
2022-08-05T16:03:10.087Z,30.82
2022-08-05T16:04:12.669Z,30.71
2022-08-05T16:05:13.298Z,30.71
2022-08-05T16:06:09.233Z,30.64
2022-08-05T16:07:13.433Z,30.59
2022-08-05T16:08:10.566Z,30.51
2022-08-05T16:09:12.137Z,30.56
2022-08-05T16:10:13.967Z,30.52
2022-08-05T16:11:10.090Z,30.52
2022-08-05T16:12:09.107Z,30.56
2022-08-05T16:13:10.204Z,30.56
2022-08-05T16:14:09.066Z,30.6
2022-08-05T16:15:18.126Z,30.52
2022-08-05T16:16:10.699Z,30.45
2022-08-05T16:17:11.492Z,30.42
2022-08-05T16:18:16.814Z,30.51
2022-08-05T16:19:11.887Z,30.4
2022-08-05T16:20:22.075Z,30.39
2022-08-05T16:21:18.260Z,30.42
2022-08-05T16:22:18.237Z,30.32
2022-08-05T16:23:17.761Z,30.29
2022-08-05T16:24:53.550Z,30.28
2022-08-05T16:25:18.200Z,30.28
2022-08-05T16:26:17.919Z,30.24
2022-08-05T16:27:32.412Z,30.18
2022-08-05T16:28:20.198Z,30.18
2022-08-05T16:29:22.188Z,30.18
2022-08-05T16:30:31.433Z,30.16
2022-08-05T16:31:17.339Z,30.18
2022-08-05T16:32:17.335Z,30.28
2022-08-05T16:33:20.020Z,30.19
2022-08-05T16:34:18.934Z,30.32
2022-08-05T16:35:24.918Z,30.14
2022-08-05T16:36:23.775Z,30.22
2022-08-05T16:38:27.987Z,30.21
2022-08-05T16:38:38.910Z,30.18
2022-08-05T16:40:29.622Z,30.04
2022-08-05T16:40:41.572Z,30.1
2022-08-05T16:42:30.601Z,30.16
2022-08-05T16:42:43.854Z,30.18
2022-08-05T16:43:42.755Z,30.14
2022-08-05T16:44:54.164Z,30.16
2022-08-05T16:46:26.576Z,30.11
2022-08-05T16:46:58.652Z,30.07
2022-08-05T16:48:04.749Z,29.97
2022-08-05T16:48:43.203Z,30.03
2022-08-05T16:49:43.293Z,29.89
2022-08-05T16:50:42.895Z,29.82
2022-08-05T16:51:59.080Z,29.7
2022-08-05T16:52:52.109Z,29.7
2022-08-05T16:54:27.419Z,29.57
2022-08-05T16:54:44.026Z,29.39
2022-08-05T16:55:51.437Z,29.4
2022-08-05T16:56:46.555Z,29.29
2022-08-05T16:58:03.480Z,28.97
2022-08-05T16:58:43.560Z,29.02
2022-08-05T17:00:14.133Z,28.83
2022-08-05T17:00:49.486Z,28.76
2022-08-05T17:02:01.934Z,28.67
2022-08-05T17:02:42.628Z,28.55
2022-08-05T17:03:43.492Z,28.49
2022-08-05T17:04:45.287Z,28.43
2022-08-05T17:05:43.256Z,28.39
2022-08-05T17:06:55.645Z,28.3
2022-08-05T17:07:57.249Z,28.23
2022-08-05T17:08:59.725Z,28.14
2022-08-05T17:10:02.745Z,28.16
2022-08-05T17:10:42.824Z,28.17
2022-08-05T17:12:01.511Z,28.16
2022-08-05T17:12:57.304Z,28.08
2022-08-05T17:13:47.556Z,28.05
2022-08-05T17:14:43.053Z,28.05
2022-08-05T17:16:26.637Z,27.9
2022-08-05T17:16:43.346Z,27.83
2022-08-05T17:17:51.365Z,27.74
2022-08-05T17:18:44.136Z,27.51
2022-08-05T17:19:43.189Z,27.51
2022-08-05T17:20:46.340Z,27.36
2022-08-05T17:21:53.641Z,27.28
2022-08-05T17:22:44.825Z,27.24
2022-08-05T17:24:36.617Z,27.15
2022-08-05T17:25:42.545Z,27.16
2022-08-05T17:26:06.822Z,27.09
2022-08-05T17:27:06.372Z,27.04
2022-08-05T17:28:05.931Z,27
2022-08-05T17:29:12.507Z,26.89
2022-08-05T17:30:18.878Z,26.84
2022-08-05T17:31:59.388Z,26.75
2022-08-05T17:32:19.092Z,26.72
2022-08-05T17:33:13.598Z,26.64